Tywyn, United Kingdom
Current Conditions -  °F | °C
As of 8:50 AM on Friday 19 Dec 2014 (Local Time) from EGOV Reporting Station
Scattered Clouds Scattered Clouds  
Wind Chill: 39°   Ceiling: Unl
Heat Index: 46°   Visibility: 6mi
Dew Point: 36°   Wind: 22mph
Humidity: 66%   Direction: 270°W
Pressure: 29.88"   Gusts: NA
Location:  52.59°N, 4.09°W
Report Text: EGOV 190850Z 27019KT 9999 SCT027 08/02 Q1012 BLU NOSIG
Loading
Personal Weather Stations






























Interactive Weather Map New forecast layout! Learn more

10-Day Weather Forecast

Advertisements
Track Severe Weather on mobile